sensor_id;sensor_type;location;lat;lon;timestamp;pressure;altitude;pressure_sealevel;temperature;humidity
56831;BME280;42713;42.676;23.352;2023-05-23T00:00:26;94656.69;;;13.96;80.04
56831;BME280;42713;42.676;23.352;2023-05-23T00:02:54;94651.97;;;13.98;79.93
56831;BME280;42713;42.676;23.352;2023-05-23T00:05:19;94647.22;;;14.05;79.39
56831;BME280;42713;42.676;23.352;2023-05-23T00:07:45;94650.66;;;14.06;78.92
56831;BME280;42713;42.676;23.352;2023-05-23T00:10:11;94643.78;;;13.99;78.75
56831;BME280;42713;42.676;23.352;2023-05-23T00:12:36;94660.38;;;13.95;79.27
56831;BME280;42713;42.676;23.352;2023-05-23T00:15:04;94657.50;;;13.91;79.37
56831;BME280;42713;42.676;23.352;2023-05-23T00:17:32;94656.72;;;13.91;79.09
56831;BME280;42713;42.676;23.352;2023-05-23T00:19:58;94644.59;;;13.90;79.38
56831;BME280;42713;42.676;23.352;2023-05-23T00:22:23;94650.13;;;13.93;79.01
56831;BME280;42713;42.676;23.352;2023-05-23T00:24:48;94649.06;;;13.84;79.24
56831;BME280;42713;42.676;23.352;2023-05-23T00:27:14;94646.69;;;13.88;79.07
56831;BME280;42713;42.676;23.352;2023-05-23T00:29:40;94651.44;;;13.80;79.01
56831;BME280;42713;42.676;23.352;2023-05-23T00:32:05;94648.00;;;13.80;78.53
56831;BME280;42713;42.676;23.352;2023-05-23T00:34:31;94648.00;;;13.80;77.94
56831;BME280;42713;42.676;23.352;2023-05-23T00:36:56;94642.50;;;13.76;77.90
56831;BME280;42713;42.676;23.352;2023-05-23T00:39:22;94643.78;;;13.68;77.67
56831;BME280;42713;42.676;23.352;2023-05-23T00:41:48;94646.97;;;13.65;77.87
56831;BME280;42713;42.676;23.352;2023-05-23T00:44:15;94645.91;;;13.61;77.62
56831;BME280;42713;42.676;23.352;2023-05-23T00:46:42;94640.66;;;13.61;78.63
56831;BME280;42713;42.676;23.352;2023-05-23T00:49:10;94630.13;;;13.56;78.40
56831;BME280;42713;42.676;23.352;2023-05-23T00:51:37;94636.69;;;13.48;78.64
56831;BME280;42713;42.676;23.352;2023-05-23T00:54:04;94639.34;;;13.48;79.09
56831;BME280;42713;42.676;23.352;2023-05-23T00:56:30;94646.72;;;13.51;79.36
56831;BME280;42713;42.676;23.352;2023-05-23T00:58:55;94642.75;;;13.49;79.11
56831;BME280;42713;42.676;23.352;2023-05-23T01:01:21;94641.69;;;13.50;78.61
56831;BME280;42713;42.676;23.352;2023-05-23T01:03:47;94642.22;;;13.52;78.12
56831;BME280;42713;42.676;23.352;2023-05-23T01:06:13;94652.75;;;13.52;77.69
56831;BME280;42713;42.676;23.352;2023-05-23T01:08:39;94650.38;;;13.50;77.32
56831;BME280;42713;42.676;23.352;2023-05-23T01:11:12;94653.81;;;13.46;77.84
56831;BME280;42713;42.676;23.352;2023-05-23T01:13:52;94646.16;;;13.39;77.32
56831;BME280;42713;42.676;23.352;2023-05-23T01:16:46;94650.59;;;13.38;77.59
56831;BME280;42713;42.676;23.352;2023-05-23T01:22:11;94646.09;;;13.23;80.10
56831;BME280;42713;42.676;23.352;2023-05-23T01:24:46;94648.47;;;13.25;81.08
56831;BME280;42713;42.676;23.352;2023-05-23T01:30:07;94653.97;;;13.13;79.94
56831;BME280;42713;42.676;23.352;2023-05-23T01:32:35;94650.56;;;13.13;80.09
56831;BME280;42713;42.676;23.352;2023-05-23T01:35:01;94644.50;;;13.12;79.85
56831;BME280;42713;42.676;23.352;2023-05-23T01:37:27;94644.75;;;13.11;79.65
56831;BME280;42713;42.676;23.352;2023-05-23T01:39:55;94650.00;;;13.11;79.64
56831;BME280;42713;42.676;23.352;2023-05-23T01:42:20;94643.44;;;13.08;79.55
56831;BME280;42713;42.676;23.352;2023-05-23T01:44:46;94646.34;;;13.06;79.69
56831;BME280;42713;42.676;23.352;2023-05-23T01:47:12;94646.34;;;13.12;79.92
56831;BME280;42713;42.676;23.352;2023-05-23T01:49:40;94632.16;;;13.07;80.32
56831;BME280;42713;42.676;23.352;2023-05-23T01:52:09;94637.41;;;13.07;80.93
56831;BME280;42713;42.676;23.352;2023-05-23T01:54:36;94639.00;;;13.14;81.31
56831;BME280;42713;42.676;23.352;2023-05-23T01:57:02;94632.69;;;13.15;81.35
56831;BME280;42713;42.676;23.352;2023-05-23T01:59:29;94637.69;;;13.11;80.86
56831;BME280;42713;42.676;23.352;2023-05-23T02:01:54;94637.91;;;13.10;80.50
56831;BME280;42713;42.676;23.352;2023-05-23T02:04:20;94639.75;;;13.09;80.19
56831;BME280;42713;42.676;23.352;2023-05-23T02:06:46;94642.13;;;13.11;79.83
56831;BME280;42713;42.676;23.352;2023-05-23T02:09:11;94639.50;;;13.11;80.22
56831;BME280;42713;42.676;23.352;2023-05-23T02:11:36;94637.91;;;13.10;79.97
56831;BME280;42713;42.676;23.352;2023-05-23T02:14:02;94635.81;;;13.06;80.58
56831;BME280;42713;42.676;23.352;2023-05-23T02:16:28;94645.03;;;13.14;81.39
56831;BME280;42713;42.676;23.352;2023-05-23T02:18:53;94648.69;;;13.13;81.21
56831;BME280;42713;42.676;23.352;2023-05-23T02:21:22;94635.81;;;13.12;81.58
56831;BME280;42713;42.676;23.352;2023-05-23T02:23:47;94635.28;;;13.10;81.35
56831;BME280;42713;42.676;23.352;2023-05-23T02:26:13;94640.03;;;13.13;81.24
56831;BME280;42713;42.676;23.352;2023-05-23T02:28:38;94637.69;;;13.11;81.64
56831;BME280;42713;42.676;23.352;2023-05-23T02:31:04;94631.88;;;13.09;81.56
56831;BME280;42713;42.676;23.352;2023-05-23T02:33:31;94637.41;;;13.13;82.05
56831;BME280;42713;42.676;23.352;2023-05-23T02:35:56;94637.94;;;13.15;81.86
56831;BME280;42713;42.676;23.352;2023-05-23T02:38:22;94633.19;;;13.12;81.88
56831;BME280;42713;42.676;23.352;2023-05-23T02:40:47;94635.03;;;13.11;81.93
56831;BME280;42713;42.676;23.352;2023-05-23T02:43:14;94627.94;;;13.06;82.44
56831;BME280;42713;42.676;23.352;2023-05-23T02:45:39;94632.66;;;13.10;82.54
56831;BME280;42713;42.676;23.352;2023-05-23T02:48:05;94627.94;;;13.12;83.37
56831;BME280;42713;42.676;23.352;2023-05-23T02:50:30;94624.53;;;13.11;83.41
56831;BME280;42713;42.676;23.352;2023-05-23T02:52:56;94623.47;;;13.12;83.06
56831;BME280;42713;42.676;23.352;2023-05-23T02:55:21;94619.00;;;13.13;83.29
56831;BME280;42713;42.676;23.352;2023-05-23T02:57:46;94624.00;;;13.14;83.55
56831;BME280;42713;42.676;23.352;2023-05-23T03:00:12;94620.03;;;13.12;83.49
56831;BME280;42713;42.676;23.352;2023-05-23T03:02:39;94624.25;;;13.13;83.32
56831;BME280;42713;42.676;23.352;2023-05-23T03:05:05;94631.38;;;13.12;83.56
56831;BME280;42713;42.676;23.352;2023-05-23T03:07:31;94627.94;;;13.12;83.28
56831;BME280;42713;42.676;23.352;2023-05-23T03:09:59;94623.22;;;13.14;83.21
56831;BME280;42713;42.676;23.352;2023-05-23T03:12:26;94625.31;;;13.12;83.26
56831;BME280;42713;42.676;23.352;2023-05-23T03:14:52;94620.03;;;13.06;82.98
56831;BME280;42713;42.676;23.352;2023-05-23T03:17:17;94621.09;;;13.05;83.13
56831;BME280;42713;42.676;23.352;2023-05-23T03:19:42;94623.47;;;13.02;83.24
56831;BME280;42713;42.676;23.352;2023-05-23T03:22:08;94627.91;;;12.96;83.21
56831;BME280;42713;42.676;23.352;2023-05-23T03:24:33;94638.44;;;12.96;82.87
56831;BME280;42713;42.676;23.352;2023-05-23T03:26:59;94632.09;;;12.92;83.28
56831;BME280;42713;42.676;23.352;2023-05-23T03:29:25;94631.31;;;12.91;82.90
56831;BME280;42713;42.676;23.352;2023-05-23T03:31:50;94634.44;;;12.88;83.48
56831;BME280;42713;42.676;23.352;2023-05-23T03:34:16;94638.94;;;12.88;83.02
56831;BME280;42713;42.676;23.352;2023-05-23T03:36:42;94640.25;;;12.90;83.15
56831;BME280;42713;42.676;23.352;2023-05-23T03:39:07;94640.75;;;12.87;82.40
56831;BME280;42713;42.676;23.352;2023-05-23T03:41:33;94643.91;;;12.95;82.60
56831;BME280;42713;42.676;23.352;2023-05-23T03:43:58;94646.31;;;12.96;82.84
56831;BME280;42713;42.676;23.352;2023-05-23T03:46:25;94655.78;;;13.02;83.37
56831;BME280;42713;42.676;23.352;2023-05-23T03:48:50;94651.56;;;13.01;82.60
56831;BME280;42713;42.676;23.352;2023-05-23T03:51:16;94645.25;;;13.02;81.80
56831;BME280;42713;42.676;23.352;2023-05-23T03:53:41;94656.31;;;13.04;81.40
56831;BME280;42713;42.676;23.352;2023-05-23T03:56:07;94659.22;;;13.03;81.48
56831;BME280;42713;42.676;23.352;2023-05-23T03:58:32;94667.63;;;13.05;81.16
56831;BME280;42713;42.676;23.352;2023-05-23T04:00:58;94661.84;;;13.08;80.93
56831;BME280;42713;42.676;23.352;2023-05-23T04:03:23;94664.47;;;13.13;81.28
56831;BME280;42713;42.676;23.352;2023-05-23T04:05:50;94663.44;;;13.14;82.25
56831;BME280;42713;42.676;23.352;2023-05-23T04:08:16;94648.44;;;13.20;82.21
56831;BME280;42713;42.676;23.352;2023-05-23T04:10:41;94655.31;;;13.21;82.75
56831;BME280;42713;42.676;23.352;2023-05-23T04:13:07;94652.66;;;13.21;81.63
56831;BME280;42713;42.676;23.352;2023-05-23T04:15:34;94651.91;;;13.20;81.71
56831;BME280;42713;42.676;23.352;2023-05-23T04:17:59;94652.94;;;13.24;82.08
56831;BME280;42713;42.676;23.352;2023-05-23T04:20:25;94645.03;;;13.24;82.43
56831;BME280;42713;42.676;23.352;2023-05-23T04:22:50;94656.38;;;13.25;82.08
56831;BME280;42713;42.676;23.352;2023-05-23T04:25:16;94645.84;;;13.25;82.46
56831;BME280;42713;42.676;23.352;2023-05-23T04:27:43;94650.06;;;13.31;83.10
56831;BME280;42713;42.676;23.352;2023-05-23T04:30:09;94652.69;;;13.31;83.01
56831;BME280;42713;42.676;23.352;2023-05-23T04:32:35;94663.22;;;13.31;82.73
56831;BME280;42713;42.676;23.352;2023-05-23T04:35:00;94658.22;;;13.35;83.85
56831;BME280;42713;42.676;23.352;2023-05-23T04:37:26;94666.16;;;13.40;83.53
56831;BME280;42713;42.676;23.352;2023-05-23T04:39:52;94660.63;;;13.42;83.41
56831;BME280;42713;42.676;23.352;2023-05-23T04:42:18;94652.22;;;13.45;83.75
56831;BME280;42713;42.676;23.352;2023-05-23T04:44:49;94655.91;;;13.44;82.94
56831;BME280;42713;42.676;23.352;2023-05-23T04:47:14;94665.63;;;13.43;82.46
56831;BME280;42713;42.676;23.352;2023-05-23T04:49:40;94660.38;;;13.48;81.80
56831;BME280;42713;42.676;23.352;2023-05-23T04:52:06;94669.84;;;13.49;80.45
56831;BME280;42713;42.676;23.352;2023-05-23T04:54:33;94664.84;;;13.48;80.22
56831;BME280;42713;42.676;23.352;2023-05-23T04:57:00;94667.47;;;13.48;80.07
56831;BME280;42713;42.676;23.352;2023-05-23T04:59:26;94663.78;;;13.49;80.03
56831;BME280;42713;42.676;23.352;2023-05-23T05:01:51;94667.50;;;13.53;79.98
56831;BME280;42713;42.676;23.352;2023-05-23T05:04:16;94665.13;;;13.51;80.08
56831;BME280;42713;42.676;23.352;2023-05-23T05:06:42;94666.69;;;13.52;80.33
56831;BME280;42713;42.676;23.352;2023-05-23T05:09:07;94676.97;;;13.54;80.01
56831;BME280;42713;42.676;23.352;2023-05-23T05:11:33;94688.28;;;13.60;80.54
56831;BME280;42713;42.676;23.352;2023-05-23T05:13:58;94685.13;;;13.63;80.26
56831;BME280;42713;42.676;23.352;2023-05-23T05:16:24;94681.44;;;13.64;79.81
56831;BME280;42713;42.676;23.352;2023-05-23T05:18:50;94688.81;;;13.67;79.29
56831;BME280;42713;42.676;23.352;2023-05-23T05:21:15;94687.25;;;13.71;78.85
56831;BME280;42713;42.676;23.352;2023-05-23T05:23:41;94684.09;;;13.69;78.91
56831;BME280;42713;42.676;23.352;2023-05-23T05:26:07;94692.78;;;13.75;79.18
56831;BME280;42713;42.676;23.352;2023-05-23T05:28:33;94679.84;;;13.73;79.69
56831;BME280;42713;42.676;23.352;2023-05-23T05:30:59;94682.75;;;13.77;79.43
56831;BME280;42713;42.676;23.352;2023-05-23T05:33:29;94678.03;;;13.79;79.85
56831;BME280;42713;42.676;23.352;2023-05-23T05:36:02;94685.13;;;13.83;79.95
56831;BME280;42713;42.676;23.352;2023-05-23T05:38:28;94685.66;;;13.85;79.42
56831;BME280;42713;42.676;23.352;2023-05-23T05:40:53;94686.47;;;13.86;79.04
56831;BME280;42713;42.676;23.352;2023-05-23T05:43:19;94696.22;;;13.91;78.64
56831;BME280;42713;42.676;23.352;2023-05-23T05:45:45;94685.94;;;13.94;78.64
56831;BME280;42713;42.676;23.352;2023-05-23T05:48:11;94690.41;;;13.99;78.66
56831;BME280;42713;42.676;23.352;2023-05-23T05:50:36;94687.75;;;14.04;78.65
56831;BME280;42713;42.676;23.352;2023-05-23T05:53:02;94694.59;;;14.05;78.03
56831;BME280;42713;42.676;23.352;2023-05-23T05:55:31;94694.09;;;14.08;78.61
56831;BME280;42713;42.676;23.352;2023-05-23T05:58:20;94667.75;;;14.08;79.56
56831;BME280;42713;42.676;23.352;2023-05-23T06:00:47;94700.38;;;14.28;78.93
56831;BME280;42713;42.676;23.352;2023-05-23T06:03:14;94695.09;;;14.38;78.53
56831;BME280;42713;42.676;23.352;2023-05-23T06:05:40;94693.78;;;14.41;79.43
56831;BME280;42713;42.676;23.352;2023-05-23T06:08:06;94695.09;;;14.48;78.31
56831;BME280;42713;42.676;23.352;2023-05-23T06:10:32;94693.50;;;14.42;78.06
56831;BME280;42713;42.676;23.352;2023-05-23T06:12:58;94700.38;;;14.38;77.98
56831;BME280;42713;42.676;23.352;2023-05-23T06:15:24;94696.94;;;14.38;78.89
56831;BME280;42713;42.676;23.352;2023-05-23T06:17:50;94693.50;;;14.42;79.05
56831;BME280;42713;42.676;23.352;2023-05-23T06:20:16;94703.00;;;14.48;78.58
56831;BME280;42713;42.676;23.352;2023-05-23T06:22:41;94699.81;;;14.57;79.80
56831;BME280;42713;42.676;23.352;2023-05-23T06:25:07;94703.72;;;14.64;80.80
56831;BME280;42713;42.676;23.352;2023-05-23T06:27:33;94692.16;;;14.71;79.82
56831;BME280;42713;42.676;23.352;2023-05-23T06:29:58;94694.75;;;14.76;78.35
56831;BME280;42713;42.676;23.352;2023-05-23T06:32:24;94703.22;;;14.73;77.79
56831;BME280;42713;42.676;23.352;2023-05-23T06:34:49;94696.91;;;14.69;77.89
56831;BME280;42713;42.676;23.352;2023-05-23T06:37:15;94696.38;;;14.72;77.96
56831;BME280;42713;42.676;23.352;2023-05-23T06:39:42;94694.25;;;14.74;77.84
56831;BME280;42713;42.676;23.352;2023-05-23T06:42:07;94699.50;;;14.79;77.80
56831;BME280;42713;42.676;23.352;2023-05-23T06:44:33;94696.06;;;14.89;77.74
56831;BME280;42713;42.676;23.352;2023-05-23T06:46:59;94692.91;;;14.87;76.81
56831;BME280;42713;42.676;23.352;2023-05-23T06:49:25;94689.16;;;14.93;77.53
56831;BME280;42713;42.676;23.352;2023-05-23T06:51:51;94697.59;;;14.95;77.47
56831;BME280;42713;42.676;23.352;2023-05-23T06:54:17;94686.25;;;14.94;77.57
56831;BME280;42713;42.676;23.352;2023-05-23T06:56:43;94681.28;;;14.88;76.58
56831;BME280;42713;42.676;23.352;2023-05-23T06:59:09;94689.72;;;14.85;76.74
56831;BME280;42713;42.676;23.352;2023-05-23T07:01:34;94679.97;;;14.85;77.05
56831;BME280;42713;42.676;23.352;2023-05-23T07:04:00;94682.31;;;14.92;77.84
56831;BME280;42713;42.676;23.352;2023-05-23T07:06:26;94687.84;;;14.96;77.53
56831;BME280;42713;42.676;23.352;2023-05-23T07:08:52;94674.41;;;14.97;78.63
56831;BME280;42713;42.676;23.352;2023-05-23T07:11:22;94672.53;;;15.03;78.87
56831;BME280;42713;42.676;23.352;2023-05-23T07:13:47;94679.88;;;15.11;78.40
56831;BME280;42713;42.676;23.352;2023-05-23T07:16:12;94677.47;;;15.15;77.94
56831;BME280;42713;42.676;23.352;2023-05-23T07:18:38;94669.81;;;15.18;77.99
56831;BME280;42713;42.676;23.352;2023-05-23T07:21:04;94670.28;;;15.25;78.28
56831;BME280;42713;42.676;23.352;2023-05-23T07:23:32;94664.69;;;15.32;78.45
56831;BME280;42713;42.676;23.352;2023-05-23T07:26:01;94652.78;;;15.40;77.61
56831;BME280;42713;42.676;23.352;2023-05-23T07:28:27;94654.31;;;15.46;77.71
56831;BME280;42713;42.676;23.352;2023-05-23T07:30:53;94663.00;;;15.52;78.03
56831;BME280;42713;42.676;23.352;2023-05-23T07:33:18;94657.13;;;15.60;78.57
56831;BME280;42713;42.676;23.352;2023-05-23T07:35:45;94662.16;;;15.62;78.01
56831;BME280;42713;42.676;23.352;2023-05-23T07:38:10;94644.41;;;15.67;77.09
56831;BME280;42713;42.676;23.352;2023-05-23T07:40:36;94649.66;;;15.72;78.25
56831;BME280;42713;42.676;23.352;2023-05-23T07:43:02;94643.53;;;15.77;78.27
56831;BME280;42713;42.676;23.352;2023-05-23T07:45:28;94647.72;;;15.83;78.61
56831;BME280;42713;42.676;23.352;2023-05-23T07:47:53;94650.88;;;15.91;77.76
56831;BME280;42713;42.676;23.352;2023-05-23T07:50:19;94645.81;;;15.94;76.69
56831;BME280;42713;42.676;23.352;2023-05-23T07:52:45;94653.69;;;15.99;77.09
56831;BME280;42713;42.676;23.352;2023-05-23T07:55:10;94649.38;;;16.09;77.77
56831;BME280;42713;42.676;23.352;2023-05-23T07:57:36;94650.16;;;16.09;77.73
56831;BME280;42713;42.676;23.352;2023-05-23T08:00:02;94652.97;;;16.18;77.52
56831;BME280;42713;42.676;23.352;2023-05-23T08:02:29;94649.72;;;16.26;76.80
56831;BME280;42713;42.676;23.352;2023-05-23T08:04:54;94643.13;;;16.29;75.48
56831;BME280;42713;42.676;23.352;2023-05-23T08:07:21;94644.34;;;16.37;76.45
56831;BME280;42713;42.676;23.352;2023-05-23T08:09:47;94636.66;;;16.40;75.57
56831;BME280;42713;42.676;23.352;2023-05-23T08:12:13;94635.31;;;16.43;75.65
56831;BME280;42713;42.676;23.352;2023-05-23T08:14:38;94638.38;;;16.50;75.49
56831;BME280;42713;42.676;23.352;2023-05-23T08:17:04;94644.72;;;16.54;75.58
56831;BME280;42713;42.676;23.352;2023-05-23T08:19:30;94633.28;;;16.59;77.29
56831;BME280;42713;42.676;23.352;2023-05-23T08:21:55;94629.28;;;16.61;76.38
56831;BME280;42713;42.676;23.352;2023-05-23T08:24:20;94637.94;;;16.67;76.73
56831;BME280;42713;42.676;23.352;2023-05-23T08:26:46;94637.31;;;16.75;77.30
56831;BME280;42713;42.676;23.352;2023-05-23T08:29:13;94641.25;;;16.78;77.44
56831;BME280;42713;42.676;23.352;2023-05-23T08:31:39;94627.38;;;16.86;77.91
56831;BME280;42713;42.676;23.352;2023-05-23T08:34:05;94632.91;;;16.90;76.76
56831;BME280;42713;42.676;23.352;2023-05-23T08:36:31;94631.00;;;16.95;76.42
56831;BME280;42713;42.676;23.352;2023-05-23T08:38:58;94630.16;;;17.00;75.71
56831;BME280;42713;42.676;23.352;2023-05-23T08:41:24;94625.88;;;17.04;76.52
56831;BME280;42713;42.676;23.352;2023-05-23T08:43:51;94629.53;;;17.08;76.52
56831;BME280;42713;42.676;23.352;2023-05-23T08:46:16;94619.88;;;17.18;76.00
56831;BME280;42713;42.676;23.352;2023-05-23T08:48:43;94622.75;;;17.21;74.43
56831;BME280;42713;42.676;23.352;2023-05-23T08:51:14;94620.59;;;17.23;73.86
56831;BME280;42713;42.676;23.352;2023-05-23T08:53:41;94622.09;;;17.30;75.27
56831;BME280;42713;42.676;23.352;2023-05-23T08:56:14;94617.81;;;17.34;75.70
56831;BME280;42713;42.676;23.352;2023-05-23T08:58:41;94619.28;;;17.40;76.68
56831;BME280;42713;42.676;23.352;2023-05-23T09:01:10;94614.41;;;17.47;76.23
56831;BME280;42713;42.676;23.352;2023-05-23T09:03:38;94622.19;;;17.57;76.14
56831;BME280;42713;42.676;23.352;2023-05-23T09:06:08;94614.59;;;17.70;74.88
56831;BME280;42713;42.676;23.352;2023-05-23T09:08:34;94607.63;;;17.74;74.13
56831;BME280;42713;42.676;23.352;2023-05-23T09:11:01;94612.56;;;17.81;73.82
56831;BME280;42713;42.676;23.352;2023-05-23T09:13:31;94616.13;;;17.90;73.16
56831;BME280;42713;42.676;23.352;2023-05-23T09:16:04;94616.63;;;17.92;71.55
56831;BME280;42713;42.676;23.352;2023-05-23T09:18:41;94605.66;;;17.99;73.72
56831;BME280;42713;42.676;23.352;2023-05-23T09:21:08;94603.81;;;18.13;73.26
56831;BME280;42713;42.676;23.352;2023-05-23T09:23:35;94604.50;;;18.19;69.79
56831;BME280;42713;42.676;23.352;2023-05-23T09:26:05;94602.84;;;18.23;68.51
56831;BME280;42713;42.676;23.352;2023-05-23T09:28:35;94598.81;;;18.26;69.41
56831;BME280;42713;42.676;23.352;2023-05-23T09:31:03;94603.63;;;18.38;67.81
56831;BME280;42713;42.676;23.352;2023-05-23T09:33:47;94599.91;;;18.39;64.77
56831;BME280;42713;42.676;23.352;2023-05-23T09:36:14;94590.50;;;18.46;61.09
56831;BME280;42713;42.676;23.352;2023-05-23T09:38:45;94595.22;;;18.49;62.29
56831;BME280;42713;42.676;23.352;2023-05-23T09:41:11;94594.03;;;18.56;61.91
56831;BME280;42713;42.676;23.352;2023-05-23T09:43:37;94591.88;;;18.58;63.74
56831;BME280;42713;42.676;23.352;2023-05-23T09:46:09;94589.41;;;18.61;61.28
56831;BME280;42713;42.676;23.352;2023-05-23T09:48:34;94583.22;;;18.66;58.77
56831;BME280;42713;42.676;23.352;2023-05-23T09:51:06;94582.13;;;18.67;55.61
56831;BME280;42713;42.676;23.352;2023-05-23T09:53:32;94567.88;;;18.63;56.88
56831;BME280;42713;42.676;23.352;2023-05-23T09:56:04;94579.66;;;18.71;56.14
56831;BME280;42713;42.676;23.352;2023-05-23T09:58:32;94572.56;;;18.80;57.75
56831;BME280;42713;42.676;23.352;2023-05-23T10:00:59;94578.69;;;18.80;56.94
56831;BME280;42713;42.676;23.352;2023-05-23T10:03:49;94568.44;;;18.88;54.44
56831;BME280;42713;42.676;23.352;2023-05-23T10:06:24;94573.13;;;18.91;54.16
56831;BME280;42713;42.676;23.352;2023-05-23T10:09:17;94570.41;;;18.96;51.39
56831;BME280;42713;42.676;23.352;2023-05-23T10:14:25;94569.03;;;18.98;54.85
56831;BME280;42713;42.676;23.352;2023-05-23T10:17:17;94566.44;;;19.07;55.08
56831;BME280;42713;42.676;23.352;2023-05-23T10:19:57;94565.41;;;19.17;55.22
56831;BME280;42713;42.676;23.352;2023-05-23T10:22:27;94564.69;;;19.25;52.52
56831;BME280;42713;42.676;23.352;2023-05-23T10:24:53;94557.59;;;19.35;54.02
56831;BME280;42713;42.676;23.352;2023-05-23T10:27:18;94557.53;;;19.49;53.23
56831;BME280;42713;42.676;23.352;2023-05-23T10:29:44;94558.84;;;19.60;51.58
56831;BME280;42713;42.676;23.352;2023-05-23T10:32:10;94558.91;;;19.69;51.86
56831;BME280;42713;42.676;23.352;2023-05-23T10:34:57;94556.13;;;19.74;51.63
56831;BME280;42713;42.676;23.352;2023-05-23T10:37:32;94550.53;;;19.84;50.23
56831;BME280;42713;42.676;23.352;2023-05-23T10:40:26;94558.75;;;19.97;51.11
56831;BME280;42713;42.676;23.352;2023-05-23T10:45:46;94548.84;;;20.11;48.58
56831;BME280;42713;42.676;23.352;2023-05-23T10:48:20;94547.16;;;20.24;49.70
56831;BME280;42713;42.676;23.352;2023-05-23T10:51:01;94537.94;;;20.30;47.14
56831;BME280;42713;42.676;23.352;2023-05-23T10:53:59;94539.94;;;20.25;46.96
56831;BME280;42713;42.676;23.352;2023-05-23T10:56:43;94540.75;;;20.34;47.48
56831;BME280;42713;42.676;23.352;2023-05-23T10:59:30;94534.81;;;20.37;46.49
56831;BME280;42713;42.676;23.352;2023-05-23T11:01:56;94533.91;;;20.42;46.65
56831;BME280;42713;42.676;23.352;2023-05-23T11:04:26;94536.16;;;20.66;46.88
56831;BME280;42713;42.676;23.352;2023-05-23T11:06:53;94527.75;;;20.99;45.68
56831;BME280;42713;42.676;23.352;2023-05-23T11:09:19;94527.59;;;21.30;44.36
56831;BME280;42713;42.676;23.352;2023-05-23T11:11:59;94522.72;;;21.59;43.34
56831;BME280;42713;42.676;23.352;2023-05-23T11:17:01;94516.72;;;22.10;42.91
56831;BME280;42713;42.676;23.352;2023-05-23T11:19:54;94523.03;;;22.44;41.62
56831;BME280;42713;42.676;23.352;2023-05-23T11:22:21;94517.72;;;22.65;40.81
56831;BME280;42713;42.676;23.352;2023-05-23T11:24:53;94511.69;;;22.77;38.42
56831;BME280;42713;42.676;23.352;2023-05-23T11:27:35;94506.63;;;22.84;38.59
56831;BME280;42713;42.676;23.352;2023-05-23T11:32:34;94518.50;;;23.08;39.01
56831;BME280;42713;42.676;23.352;2023-05-23T11:35:04;94515.00;;;23.16;39.00
56831;BME280;42713;42.676;23.352;2023-05-23T11:37:30;94496.94;;;23.22;38.52
56831;BME280;42713;42.676;23.352;2023-05-23T11:39:56;94497.09;;;23.16;38.48
56831;BME280;42713;42.676;23.352;2023-05-23T11:42:22;94500.69;;;23.21;38.67
56831;BME280;42713;42.676;23.352;2023-05-23T11:44:49;94498.28;;;23.28;38.53
56831;BME280;42713;42.676;23.352;2023-05-23T11:47:16;94495.72;;;23.31;38.88
56831;BME280;42713;42.676;23.352;2023-05-23T11:49:44;94493.06;;;23.31;38.60
56831;BME280;42713;42.676;23.352;2023-05-23T11:52:09;94496.63;;;23.36;39.48
56831;BME280;42713;42.676;23.352;2023-05-23T11:54:35;94499.09;;;23.41;38.12
56831;BME280;42713;42.676;23.352;2023-05-23T11:57:01;94494.66;;;23.45;38.33
56831;BME280;42713;42.676;23.352;2023-05-23T11:59:27;94483.09;;;23.53;38.63
56831;BME280;42713;42.676;23.352;2023-05-23T12:01:54;94471.72;;;23.56;36.90
56831;BME280;42713;42.676;23.352;2023-05-23T12:04:24;94478.91;;;23.65;36.00
56831;BME280;42713;42.676;23.352;2023-05-23T12:06:51;94471.75;;;23.69;36.77
56831;BME280;42713;42.676;23.352;2023-05-23T12:09:16;94483.13;;;23.78;37.26
56831;BME280;42713;42.676;23.352;2023-05-23T12:11:43;94483.38;;;23.85;35.91
56831;BME280;42713;42.676;23.352;2023-05-23T12:14:13;94477.00;;;23.77;35.00
56831;BME280;42713;42.676;23.352;2023-05-23T12:16:44;94475.56;;;23.80;35.87
56831;BME280;42713;42.676;23.352;2023-05-23T12:19:15;94472.44;;;23.90;35.39
56831;BME280;42713;42.676;23.352;2023-05-23T12:21:45;94460.88;;;23.99;34.75
56831;BME280;42713;42.676;23.352;2023-05-23T12:26:51;94458.22;;;24.23;36.55
56831;BME280;42713;42.676;23.352;2023-05-23T12:29:18;94454.50;;;24.40;35.36
56831;BME280;42713;42.676;23.352;2023-05-23T12:31:47;94445.88;;;24.60;36.00
56831;BME280;42713;42.676;23.352;2023-05-23T12:34:12;94445.53;;;24.74;35.00
56831;BME280;42713;42.676;23.352;2023-05-23T12:36:38;94445.78;;;24.97;33.96
56831;BME280;42713;42.676;23.352;2023-05-23T12:39:04;94436.16;;;25.08;32.70
56831;BME280;42713;42.676;23.352;2023-05-23T12:41:31;94439.19;;;25.23;32.81
56831;BME280;42713;42.676;23.352;2023-05-23T12:43:58;94433.44;;;25.37;33.27
56831;BME280;42713;42.676;23.352;2023-05-23T12:46:25;94437.53;;;25.46;33.25
56831;BME280;42713;42.676;23.352;2023-05-23T12:48:52;94430.91;;;25.56;32.80
56831;BME280;42713;42.676;23.352;2023-05-23T12:51:19;94428.91;;;25.69;30.92
56831;BME280;42713;42.676;23.352;2023-05-23T12:53:45;94428.13;;;25.85;30.47
56831;BME280;42713;42.676;23.352;2023-05-23T12:56:13;94420.94;;;26.05;30.11
56831;BME280;42713;42.676;23.352;2023-05-23T12:58:44;94425.25;;;26.25;29.31
56831;BME280;42713;42.676;23.352;2023-05-23T13:01:10;94422.72;;;26.33;28.38
56831;BME280;42713;42.676;23.352;2023-05-23T13:03:35;94418.75;;;26.46;29.24
56831;BME280;42713;42.676;23.352;2023-05-23T13:06:06;94419.00;;;26.57;29.15
56831;BME280;42713;42.676;23.352;2023-05-23T13:08:37;94406.56;;;26.68;29.81
56831;BME280;42713;42.676;23.352;2023-05-23T13:11:02;94410.91;;;26.93;28.20